Schedule Details

Flight Number: CPX818
Departure: Ramstein Air Force Base (ETAR) at N/A
Arrival: RAF Mildenhall (EGUN) at N/A


Current Weather Information
ETAR 180456Z 00000KT 9999 CLR M05/M07 A3017 RMK AO2A SLP229 T1053 $
EGUN 180456Z AUTO 17005KT 9999 SCT095 SCT110 07/07 A2993 RMK AO2 SLP139 T00740074 $

Route Map